sensor_id;sensor_type;location;lat;lon;timestamp;P1;durP1;ratioP1;P2;durP2;ratioP2
6269;SDS011;3168;51.684;6.954;2024-03-08T00:01:49;14.90;;;10.13;;
6269;SDS011;3168;51.684;6.954;2024-03-08T00:04:15;22.27;;;11.87;;
6269;SDS011;3168;51.684;6.954;2024-03-08T00:06:41;17.13;;;12.10;;
6269;SDS011;3168;51.684;6.954;2024-03-08T00:09:07;13.73;;;11.07;;
6269;SDS011;3168;51.684;6.954;2024-03-08T00:11:34;16.60;;;11.30;;
6269;SDS011;3168;51.684;6.954;2024-03-08T00:13:59;15.80;;;11.57;;
6269;SDS011;3168;51.684;6.954;2024-03-08T00:16:25;15.50;;;12.60;;
6269;SDS011;3168;51.684;6.954;2024-03-08T00:18:51;18.30;;;11.40;;
6269;SDS011;3168;51.684;6.954;2024-03-08T00:21:17;20.40;;;11.50;;
6269;SDS011;3168;51.684;6.954;2024-03-08T00:23:43;16.80;;;10.67;;
6269;SDS011;3168;51.684;6.954;2024-03-08T00:26:08;17.17;;;11.30;;
6269;SDS011;3168;51.684;6.954;2024-03-08T00:28:35;19.70;;;11.80;;
6269;SDS011;3168;51.684;6.954;2024-03-08T00:31:00;22.33;;;13.40;;
6269;SDS011;3168;51.684;6.954;2024-03-08T00:33:26;27.23;;;13.80;;
6269;SDS011;3168;51.684;6.954;2024-03-08T00:35:54;25.20;;;13.60;;
6269;SDS011;3168;51.684;6.954;2024-03-08T00:38:20;15.20;;;12.10;;
6269;SDS011;3168;51.684;6.954;2024-03-08T00:40:46;14.80;;;11.20;;
6269;SDS011;3168;51.684;6.954;2024-03-08T00:43:12;29.17;;;11.53;;
6269;SDS011;3168;51.684;6.954;2024-03-08T00:45:38;16.70;;;11.33;;
6269;SDS011;3168;51.684;6.954;2024-03-08T00:48:05;19.90;;;12.40;;
6269;SDS011;3168;51.684;6.954;2024-03-08T00:50:31;16.53;;;12.30;;
6269;SDS011;3168;51.684;6.954;2024-03-08T00:52:57;18.50;;;10.93;;
6269;SDS011;3168;51.684;6.954;2024-03-08T00:55:24;17.50;;;12.50;;
6269;SDS011;3168;51.684;6.954;2024-03-08T00:57:51;21.57;;;11.10;;
6269;SDS011;3168;51.684;6.954;2024-03-08T01:00:17;19.23;;;11.10;;
6269;SDS011;3168;51.684;6.954;2024-03-08T01:02:43;18.30;;;10.40;;
6269;SDS011;3168;51.684;6.954;2024-03-08T01:05:09;21.37;;;13.10;;
6269;SDS011;3168;51.684;6.954;2024-03-08T01:07:35;17.70;;;11.80;;
6269;SDS011;3168;51.684;6.954;2024-03-08T01:10:03;13.43;;;11.90;;
6269;SDS011;3168;51.684;6.954;2024-03-08T01:12:28;19.57;;;13.30;;
6269;SDS011;3168;51.684;6.954;2024-03-08T01:14:53;18.73;;;12.37;;
6269;SDS011;3168;51.684;6.954;2024-03-08T01:17:19;22.77;;;12.67;;
6269;SDS011;3168;51.684;6.954;2024-03-08T01:19:45;16.17;;;12.60;;
6269;SDS011;3168;51.684;6.954;2024-03-08T01:22:11;21.83;;;12.40;;
6269;SDS011;3168;51.684;6.954;2024-03-08T01:24:36;22.83;;;11.67;;
6269;SDS011;3168;51.684;6.954;2024-03-08T01:27:02;17.33;;;12.27;;
6269;SDS011;3168;51.684;6.954;2024-03-08T01:29:28;17.60;;;13.43;;
6269;SDS011;3168;51.684;6.954;2024-03-08T01:31:56;16.93;;;11.47;;
6269;SDS011;3168;51.684;6.954;2024-03-08T01:34:22;18.20;;;13.20;;
6269;SDS011;3168;51.684;6.954;2024-03-08T01:36:48;18.40;;;13.10;;
6269;SDS011;3168;51.684;6.954;2024-03-08T01:39:14;16.13;;;13.00;;
6269;SDS011;3168;51.684;6.954;2024-03-08T01:41:40;18.13;;;11.47;;
6269;SDS011;3168;51.684;6.954;2024-03-08T01:44:06;20.43;;;12.00;;
6269;SDS011;3168;51.684;6.954;2024-03-08T01:46:32;13.63;;;10.60;;
6269;SDS011;3168;51.684;6.954;2024-03-08T01:48:58;18.00;;;12.37;;
6269;SDS011;3168;51.684;6.954;2024-03-08T01:51:23;25.83;;;11.80;;
6269;SDS011;3168;51.684;6.954;2024-03-08T01:53:49;17.87;;;13.10;;
6269;SDS011;3168;51.684;6.954;2024-03-08T01:56:15;17.63;;;10.83;;
6269;SDS011;3168;51.684;6.954;2024-03-08T01:58:41;18.83;;;12.23;;
6269;SDS011;3168;51.684;6.954;2024-03-08T02:01:10;19.20;;;12.90;;
6269;SDS011;3168;51.684;6.954;2024-03-08T02:03:37;29.03;;;13.10;;
6269;SDS011;3168;51.684;6.954;2024-03-08T02:06:04;20.20;;;12.30;;
6269;SDS011;3168;51.684;6.954;2024-03-08T02:08:30;22.63;;;14.40;;
6269;SDS011;3168;51.684;6.954;2024-03-08T02:10:55;21.43;;;12.70;;
6269;SDS011;3168;51.684;6.954;2024-03-08T02:13:21;28.23;;;12.50;;
6269;SDS011;3168;51.684;6.954;2024-03-08T02:18:22;18.67;;;12.93;;
6269;SDS011;3168;51.684;6.954;2024-03-08T02:20:49;23.10;;;14.53;;
6269;SDS011;3168;51.684;6.954;2024-03-08T02:23:15;19.00;;;12.20;;
6269;SDS011;3168;51.684;6.954;2024-03-08T02:25:41;18.67;;;10.73;;
6269;SDS011;3168;51.684;6.954;2024-03-08T02:28:09;15.67;;;11.60;;
6269;SDS011;3168;51.684;6.954;2024-03-08T02:30:34;20.53;;;11.07;;
6269;SDS011;3168;51.684;6.954;2024-03-08T02:33:00;24.80;;;13.00;;
6269;SDS011;3168;51.684;6.954;2024-03-08T02:35:26;15.40;;;10.97;;
6269;SDS011;3168;51.684;6.954;2024-03-08T02:37:52;21.50;;;12.77;;
6269;SDS011;3168;51.684;6.954;2024-03-08T02:40:18;20.30;;;12.10;;
6269;SDS011;3168;51.684;6.954;2024-03-08T02:42:44;16.47;;;11.30;;
6269;SDS011;3168;51.684;6.954;2024-03-08T02:45:09;15.10;;;12.00;;
6269;SDS011;3168;51.684;6.954;2024-03-08T02:47:35;31.47;;;11.63;;
6269;SDS011;3168;51.684;6.954;2024-03-08T02:50:01;21.67;;;14.20;;
6269;SDS011;3168;51.684;6.954;2024-03-08T02:52:27;16.47;;;12.70;;
6269;SDS011;3168;51.684;6.954;2024-03-08T02:54:53;14.80;;;11.67;;
6269;SDS011;3168;51.684;6.954;2024-03-08T02:57:18;15.70;;;10.60;;
6269;SDS011;3168;51.684;6.954;2024-03-08T02:59:44;16.43;;;11.70;;
6269;SDS011;3168;51.684;6.954;2024-03-08T03:02:10;18.13;;;12.87;;
6269;SDS011;3168;51.684;6.954;2024-03-08T03:04:39;15.47;;;10.73;;
6269;SDS011;3168;51.684;6.954;2024-03-08T03:07:03;14.27;;;11.10;;
6269;SDS011;3168;51.684;6.954;2024-03-08T03:09:29;19.87;;;12.40;;
6269;SDS011;3168;51.684;6.954;2024-03-08T03:11:54;17.00;;;12.13;;
6269;SDS011;3168;51.684;6.954;2024-03-08T03:14:21;20.77;;;13.30;;
6269;SDS011;3168;51.684;6.954;2024-03-08T03:16:46;19.57;;;12.87;;
6269;SDS011;3168;51.684;6.954;2024-03-08T03:19:12;32.00;;;14.50;;
6269;SDS011;3168;51.684;6.954;2024-03-08T03:21:38;19.70;;;12.67;;
6269;SDS011;3168;51.684;6.954;2024-03-08T03:24:04;16.50;;;11.70;;
6269;SDS011;3168;51.684;6.954;2024-03-08T03:26:30;20.70;;;11.43;;
6269;SDS011;3168;51.684;6.954;2024-03-08T03:28:56;16.87;;;11.30;;
6269;SDS011;3168;51.684;6.954;2024-03-08T03:31:22;18.60;;;10.73;;
6269;SDS011;3168;51.684;6.954;2024-03-08T03:33:47;23.57;;;13.70;;
6269;SDS011;3168;51.684;6.954;2024-03-08T03:36:13;22.33;;;13.70;;
6269;SDS011;3168;51.684;6.954;2024-03-08T03:38:39;19.83;;;12.30;;
6269;SDS011;3168;51.684;6.954;2024-03-08T03:41:05;21.00;;;13.15;;
6269;SDS011;3168;51.684;6.954;2024-03-08T03:43:31;15.97;;;11.93;;
6269;SDS011;3168;51.684;6.954;2024-03-08T03:45:57;19.67;;;12.97;;
6269;SDS011;3168;51.684;6.954;2024-03-08T03:48:22;20.43;;;12.20;;
6269;SDS011;3168;51.684;6.954;2024-03-08T03:50:48;16.67;;;12.00;;
6269;SDS011;3168;51.684;6.954;2024-03-08T03:53:14;16.27;;;11.80;;
6269;SDS011;3168;51.684;6.954;2024-03-08T03:55:40;21.53;;;10.97;;
6269;SDS011;3168;51.684;6.954;2024-03-08T03:58:06;18.80;;;11.50;;
6269;SDS011;3168;51.684;6.954;2024-03-08T04:00:31;21.63;;;14.43;;
6269;SDS011;3168;51.684;6.954;2024-03-08T04:02:57;14.50;;;11.03;;
6269;SDS011;3168;51.684;6.954;2024-03-08T04:05:23;32.50;;;16.30;;
6269;SDS011;3168;51.684;6.954;2024-03-08T04:07:49;23.70;;;14.57;;
6269;SDS011;3168;51.684;6.954;2024-03-08T04:10:15;16.53;;;10.83;;
6269;SDS011;3168;51.684;6.954;2024-03-08T04:12:41;12.97;;;9.90;;
6269;SDS011;3168;51.684;6.954;2024-03-08T04:15:08;21.03;;;11.40;;
6269;SDS011;3168;51.684;6.954;2024-03-08T04:17:34;23.57;;;12.87;;
6269;SDS011;3168;51.684;6.954;2024-03-08T04:20:01;17.50;;;12.40;;
6269;SDS011;3168;51.684;6.954;2024-03-08T04:22:27;16.67;;;11.20;;
6269;SDS011;3168;51.684;6.954;2024-03-08T04:24:53;19.83;;;12.43;;
6269;SDS011;3168;51.684;6.954;2024-03-08T04:27:19;23.73;;;13.17;;
6269;SDS011;3168;51.684;6.954;2024-03-08T04:29:45;14.00;;;10.70;;
6269;SDS011;3168;51.684;6.954;2024-03-08T04:32:11;14.43;;;12.17;;
6269;SDS011;3168;51.684;6.954;2024-03-08T04:34:37;18.77;;;12.10;;
6269;SDS011;3168;51.684;6.954;2024-03-08T04:37:03;22.73;;;13.13;;
6269;SDS011;3168;51.684;6.954;2024-03-08T04:39:29;20.00;;;10.77;;
6269;SDS011;3168;51.684;6.954;2024-03-08T04:41:55;22.47;;;15.10;;
6269;SDS011;3168;51.684;6.954;2024-03-08T04:44:20;21.10;;;12.63;;
6269;SDS011;3168;51.684;6.954;2024-03-08T04:46:46;18.60;;;12.70;;
6269;SDS011;3168;51.684;6.954;2024-03-08T04:49:12;22.37;;;13.20;;
6269;SDS011;3168;51.684;6.954;2024-03-08T04:51:38;23.17;;;13.30;;
6269;SDS011;3168;51.684;6.954;2024-03-08T04:54:04;26.93;;;12.30;;
6269;SDS011;3168;51.684;6.954;2024-03-08T04:56:30;20.60;;;13.97;;
6269;SDS011;3168;51.684;6.954;2024-03-08T04:58:56;28.97;;;14.33;;
6269;SDS011;3168;51.684;6.954;2024-03-08T05:01:23;19.23;;;10.73;;
6269;SDS011;3168;51.684;6.954;2024-03-08T05:03:48;30.40;;;14.30;;
6269;SDS011;3168;51.684;6.954;2024-03-08T05:06:14;19.63;;;13.20;;
6269;SDS011;3168;51.684;6.954;2024-03-08T05:08:40;15.97;;;11.87;;
6269;SDS011;3168;51.684;6.954;2024-03-08T05:11:06;19.20;;;11.80;;
6269;SDS011;3168;51.684;6.954;2024-03-08T05:13:32;17.77;;;11.73;;
6269;SDS011;3168;51.684;6.954;2024-03-08T05:15:57;17.47;;;11.30;;
6269;SDS011;3168;51.684;6.954;2024-03-08T05:18:24;25.40;;;13.40;;
6269;SDS011;3168;51.684;6.954;2024-03-08T05:20:50;23.50;;;14.00;;
6269;SDS011;3168;51.684;6.954;2024-03-08T05:23:16;23.70;;;14.87;;
6269;SDS011;3168;51.684;6.954;2024-03-08T05:25:42;22.40;;;14.43;;
6269;SDS011;3168;51.684;6.954;2024-03-08T05:28:07;19.53;;;11.60;;
6269;SDS011;3168;51.684;6.954;2024-03-08T05:30:33;23.20;;;12.73;;
6269;SDS011;3168;51.684;6.954;2024-03-08T05:32:59;23.43;;;13.70;;
6269;SDS011;3168;51.684;6.954;2024-03-08T05:35:25;30.03;;;13.70;;
6269;SDS011;3168;51.684;6.954;2024-03-08T05:37:51;22.80;;;12.40;;
6269;SDS011;3168;51.684;6.954;2024-03-08T05:40:17;19.05;;;13.20;;
6269;SDS011;3168;51.684;6.954;2024-03-08T05:42:43;28.30;;;15.33;;
6269;SDS011;3168;51.684;6.954;2024-03-08T05:45:09;14.03;;;11.17;;
6269;SDS011;3168;51.684;6.954;2024-03-08T05:47:35;18.83;;;11.50;;
6269;SDS011;3168;51.684;6.954;2024-03-08T05:50:01;22.63;;;13.67;;
6269;SDS011;3168;51.684;6.954;2024-03-08T05:52:27;15.87;;;12.70;;
6269;SDS011;3168;51.684;6.954;2024-03-08T05:54:53;29.97;;;15.50;;
6269;SDS011;3168;51.684;6.954;2024-03-08T05:57:19;19.90;;;13.23;;
6269;SDS011;3168;51.684;6.954;2024-03-08T05:59:45;19.90;;;13.90;;
6269;SDS011;3168;51.684;6.954;2024-03-08T06:02:11;21.53;;;11.47;;
6269;SDS011;3168;51.684;6.954;2024-03-08T06:04:37;18.47;;;11.70;;
6269;SDS011;3168;51.684;6.954;2024-03-08T06:07:03;40.50;;;13.10;;
6269;SDS011;3168;51.684;6.954;2024-03-08T06:09:29;25.70;;;13.83;;
6269;SDS011;3168;51.684;6.954;2024-03-08T06:11:55;17.20;;;11.73;;
6269;SDS011;3168;51.684;6.954;2024-03-08T06:14:20;13.90;;;11.13;;
6269;SDS011;3168;51.684;6.954;2024-03-08T06:16:46;25.63;;;14.00;;
6269;SDS011;3168;51.684;6.954;2024-03-08T06:19:12;23.67;;;13.73;;
6269;SDS011;3168;51.684;6.954;2024-03-08T06:21:38;22.03;;;12.90;;
6269;SDS011;3168;51.684;6.954;2024-03-08T06:24:04;25.97;;;12.80;;
6269;SDS011;3168;51.684;6.954;2024-03-08T06:26:30;22.43;;;13.93;;
6269;SDS011;3168;51.684;6.954;2024-03-08T06:28:56;25.93;;;15.00;;
6269;SDS011;3168;51.684;6.954;2024-03-08T06:31:22;22.63;;;13.27;;
6269;SDS011;3168;51.684;6.954;2024-03-08T06:33:48;23.07;;;14.60;;
6269;SDS011;3168;51.684;6.954;2024-03-08T06:36:16;24.20;;;14.80;;
6269;SDS011;3168;51.684;6.954;2024-03-08T06:38:41;26.17;;;13.90;;
6269;SDS011;3168;51.684;6.954;2024-03-08T06:41:08;24.80;;;14.93;;
6269;SDS011;3168;51.684;6.954;2024-03-08T06:43:33;21.40;;;14.70;;
6269;SDS011;3168;51.684;6.954;2024-03-08T06:45:59;28.03;;;16.20;;
6269;SDS011;3168;51.684;6.954;2024-03-08T06:48:25;28.50;;;15.63;;
6269;SDS011;3168;51.684;6.954;2024-03-08T06:50:51;23.97;;;15.00;;
6269;SDS011;3168;51.684;6.954;2024-03-08T06:53:17;31.93;;;16.10;;
6269;SDS011;3168;51.684;6.954;2024-03-08T06:55:43;18.93;;;12.70;;
6269;SDS011;3168;51.684;6.954;2024-03-08T06:58:09;21.13;;;14.33;;
6269;SDS011;3168;51.684;6.954;2024-03-08T07:00:34;21.17;;;15.70;;
6269;SDS011;3168;51.684;6.954;2024-03-08T07:03:00;19.20;;;13.10;;
6269;SDS011;3168;51.684;6.954;2024-03-08T07:05:27;21.13;;;13.97;;
6269;SDS011;3168;51.684;6.954;2024-03-08T07:07:52;26.40;;;14.97;;
6269;SDS011;3168;51.684;6.954;2024-03-08T07:10:18;24.07;;;14.53;;
6269;SDS011;3168;51.684;6.954;2024-03-08T07:12:44;22.63;;;15.10;;
6269;SDS011;3168;51.684;6.954;2024-03-08T07:15:10;32.50;;;14.50;;
6269;SDS011;3168;51.684;6.954;2024-03-08T07:17:36;23.27;;;14.07;;
6269;SDS011;3168;51.684;6.954;2024-03-08T07:20:02;21.90;;;13.00;;
6269;SDS011;3168;51.684;6.954;2024-03-08T07:22:28;21.13;;;14.97;;
6269;SDS011;3168;51.684;6.954;2024-03-08T07:24:54;24.90;;;15.30;;
6269;SDS011;3168;51.684;6.954;2024-03-08T07:27:27;18.53;;;13.30;;
6269;SDS011;3168;51.684;6.954;2024-03-08T07:29:52;24.33;;;14.07;;
6269;SDS011;3168;51.684;6.954;2024-03-08T07:32:18;24.33;;;13.57;;
6269;SDS011;3168;51.684;6.954;2024-03-08T07:34:47;20.33;;;14.50;;
6269;SDS011;3168;51.684;6.954;2024-03-08T07:37:13;23.23;;;15.53;;
6269;SDS011;3168;51.684;6.954;2024-03-08T07:39:39;17.97;;;13.20;;
6269;SDS011;3168;51.684;6.954;2024-03-08T07:42:05;20.20;;;14.52;;
6269;SDS011;3168;51.684;6.954;2024-03-08T07:44:31;33.57;;;16.73;;
6269;SDS011;3168;51.684;6.954;2024-03-08T07:46:57;28.37;;;16.97;;
6269;SDS011;3168;51.684;6.954;2024-03-08T07:49:22;27.00;;;14.30;;
6269;SDS011;3168;51.684;6.954;2024-03-08T07:51:48;19.53;;;14.10;;
6269;SDS011;3168;51.684;6.954;2024-03-08T07:54:14;20.00;;;14.20;;
6269;SDS011;3168;51.684;6.954;2024-03-08T07:56:40;22.00;;;12.17;;
6269;SDS011;3168;51.684;6.954;2024-03-08T07:59:06;22.80;;;13.87;;
6269;SDS011;3168;51.684;6.954;2024-03-08T08:01:32;22.33;;;13.43;;
6269;SDS011;3168;51.684;6.954;2024-03-08T08:03:57;24.60;;;15.70;;
6269;SDS011;3168;51.684;6.954;2024-03-08T08:06:24;24.13;;;14.67;;
6269;SDS011;3168;51.684;6.954;2024-03-08T08:08:50;22.53;;;15.53;;
6269;SDS011;3168;51.684;6.954;2024-03-08T08:11:15;22.33;;;14.17;;
6269;SDS011;3168;51.684;6.954;2024-03-08T08:13:41;32.83;;;15.77;;
6269;SDS011;3168;51.684;6.954;2024-03-08T08:16:07;25.10;;;15.70;;
6269;SDS011;3168;51.684;6.954;2024-03-08T08:18:33;21.13;;;13.80;;
6269;SDS011;3168;51.684;6.954;2024-03-08T08:20:59;28.27;;;14.80;;
6269;SDS011;3168;51.684;6.954;2024-03-08T08:23:26;23.13;;;14.37;;
6269;SDS011;3168;51.684;6.954;2024-03-08T08:25:52;20.83;;;14.43;;
6269;SDS011;3168;51.684;6.954;2024-03-08T08:28:17;25.63;;;14.43;;
6269;SDS011;3168;51.684;6.954;2024-03-08T08:30:44;24.60;;;15.50;;
6269;SDS011;3168;51.684;6.954;2024-03-08T08:33:10;28.40;;;17.23;;
6269;SDS011;3168;51.684;6.954;2024-03-08T08:35:36;23.10;;;13.23;;
6269;SDS011;3168;51.684;6.954;2024-03-08T08:38:02;45.33;;;15.13;;
6269;SDS011;3168;51.684;6.954;2024-03-08T08:40:28;23.40;;;14.07;;
6269;SDS011;3168;51.684;6.954;2024-03-08T08:42:54;22.57;;;14.37;;
6269;SDS011;3168;51.684;6.954;2024-03-08T08:45:20;28.90;;;15.40;;
6269;SDS011;3168;51.684;6.954;2024-03-08T08:47:46;20.10;;;13.20;;
6269;SDS011;3168;51.684;6.954;2024-03-08T08:50:12;20.40;;;13.93;;
6269;SDS011;3168;51.684;6.954;2024-03-08T08:52:38;17.40;;;12.90;;
6269;SDS011;3168;51.684;6.954;2024-03-08T08:55:04;33.87;;;14.50;;
6269;SDS011;3168;51.684;6.954;2024-03-08T08:57:30;28.10;;;17.17;;
6269;SDS011;3168;51.684;6.954;2024-03-08T08:59:56;20.90;;;13.40;;
6269;SDS011;3168;51.684;6.954;2024-03-08T09:02:21;22.80;;;15.20;;
6269;SDS011;3168;51.684;6.954;2024-03-08T09:04:47;26.00;;;14.30;;
6269;SDS011;3168;51.684;6.954;2024-03-08T09:07:14;18.37;;;12.27;;
6269;SDS011;3168;51.684;6.954;2024-03-08T09:09:39;24.37;;;14.40;;
6269;SDS011;3168;51.684;6.954;2024-03-08T09:12:05;25.47;;;15.47;;
6269;SDS011;3168;51.684;6.954;2024-03-08T09:14:31;25.30;;;14.77;;
6269;SDS011;3168;51.684;6.954;2024-03-08T09:16:57;27.40;;;14.93;;
6269;SDS011;3168;51.684;6.954;2024-03-08T09:19:23;22.47;;;15.70;;
6269;SDS011;3168;51.684;6.954;2024-03-08T09:21:49;22.13;;;12.97;;
6269;SDS011;3168;51.684;6.954;2024-03-08T09:24:15;27.40;;;15.20;;
6269;SDS011;3168;51.684;6.954;2024-03-08T09:26:41;23.37;;;16.07;;
6269;SDS011;3168;51.684;6.954;2024-03-08T09:29:07;24.17;;;12.10;;
6269;SDS011;3168;51.684;6.954;2024-03-08T09:31:33;24.03;;;14.07;;
6269;SDS011;3168;51.684;6.954;2024-03-08T09:33:58;25.53;;;14.90;;
6269;SDS011;3168;51.684;6.954;2024-03-08T09:36:24;22.57;;;13.80;;
6269;SDS011;3168;51.684;6.954;2024-03-08T09:38:50;27.33;;;14.17;;
6269;SDS011;3168;51.684;6.954;2024-03-08T09:41:16;18.90;;;14.60;;
6269;SDS011;3168;51.684;6.954;2024-03-08T09:43:42;23.53;;;13.83;;
6269;SDS011;3168;51.684;6.954;2024-03-08T09:46:08;27.73;;;13.50;;
6269;SDS011;3168;51.684;6.954;2024-03-08T09:48:34;31.70;;;14.93;;
6269;SDS011;3168;51.684;6.954;2024-03-08T09:51:00;21.37;;;13.90;;
6269;SDS011;3168;51.684;6.954;2024-03-08T09:53:26;27.47;;;14.50;;
6269;SDS011;3168;51.684;6.954;2024-03-08T09:55:52;25.23;;;13.07;;
6269;SDS011;3168;51.684;6.954;2024-03-08T09:58:17;21.47;;;14.10;;
6269;SDS011;3168;51.684;6.954;2024-03-08T10:00:59;21.80;;;13.43;;
6269;SDS011;3168;51.684;6.954;2024-03-08T10:03:27;19.27;;;13.27;;
6269;SDS011;3168;51.684;6.954;2024-03-08T10:05:53;24.20;;;14.30;;
6269;SDS011;3168;51.684;6.954;2024-03-08T10:08:19;18.47;;;12.87;;
6269;SDS011;3168;51.684;6.954;2024-03-08T10:10:45;22.50;;;13.00;;
6269;SDS011;3168;51.684;6.954;2024-03-08T10:13:11;14.83;;;11.30;;
6269;SDS011;3168;51.684;6.954;2024-03-08T10:15:39;16.67;;;11.83;;
6269;SDS011;3168;51.684;6.954;2024-03-08T10:18:04;21.57;;;12.47;;
6269;SDS011;3168;51.684;6.954;2024-03-08T10:20:30;16.40;;;11.47;;
6269;SDS011;3168;51.684;6.954;2024-03-08T10:22:56;16.33;;;12.37;;
6269;SDS011;3168;51.684;6.954;2024-03-08T10:25:22;19.00;;;13.27;;
6269;SDS011;3168;51.684;6.954;2024-03-08T10:27:48;19.50;;;11.23;;
6269;SDS011;3168;51.684;6.954;2024-03-08T10:30:15;18.33;;;12.83;;
6269;SDS011;3168;51.684;6.954;2024-03-08T10:32:41;19.73;;;13.20;;
6269;SDS011;3168;51.684;6.954;2024-03-08T10:35:07;14.80;;;12.03;;
6269;SDS011;3168;51.684;6.954;2024-03-08T10:37:36;20.30;;;13.03;;
6269;SDS011;3168;51.684;6.954;2024-03-08T10:40:02;14.17;;;11.57;;
6269;SDS011;3168;51.684;6.954;2024-03-08T10:42:31;24.10;;;11.82;;
6269;SDS011;3168;51.684;6.954;2024-03-08T10:45:00;17.77;;;10.53;;
6269;SDS011;3168;51.684;6.954;2024-03-08T10:47:26;17.00;;;12.23;;
6269;SDS011;3168;51.684;6.954;2024-03-08T10:49:56;15.97;;;11.63;;
6269;SDS011;3168;51.684;6.954;2024-03-08T10:52:21;12.97;;;10.70;;
6269;SDS011;3168;51.684;6.954;2024-03-08T10:54:46;16.63;;;13.10;;
6269;SDS011;3168;51.684;6.954;2024-03-08T10:57:13;14.63;;;10.37;;
6269;SDS011;3168;51.684;6.954;2024-03-08T10:59:39;19.63;;;10.10;;
6269;SDS011;3168;51.684;6.954;2024-03-08T11:02:05;16.90;;;10.77;;
6269;SDS011;3168;51.684;6.954;2024-03-08T11:04:31;14.07;;;10.83;;
6269;SDS011;3168;51.684;6.954;2024-03-08T11:07:00;22.50;;;12.70;;
6269;SDS011;3168;51.684;6.954;2024-03-08T11:09:27;23.00;;;12.20;;
6269;SDS011;3168;51.684;6.954;2024-03-08T11:12:05;14.17;;;10.23;;
6269;SDS011;3168;51.684;6.954;2024-03-08T11:14:42;19.60;;;12.87;;
6269;SDS011;3168;51.684;6.954;2024-03-08T11:16:52;15.37;;;12.37;;
6269;SDS011;3168;51.684;6.954;2024-03-08T11:19:25;19.13;;;11.83;;
6269;SDS011;3168;51.684;6.954;2024-03-08T11:21:58;13.03;;;10.57;;
6269;SDS011;3168;51.684;6.954;2024-03-08T11:24:24;17.20;;;12.27;;
6269;SDS011;3168;51.684;6.954;2024-03-08T11:26:52;13.50;;;9.80;;
6269;SDS011;3168;51.684;6.954;2024-03-08T11:32:04;15.13;;;10.47;;
6269;SDS011;3168;51.684;6.954;2024-03-08T11:34:45;15.27;;;10.63;;
6269;SDS011;3168;51.684;6.954;2024-03-08T11:37:12;17.70;;;12.97;;
6269;SDS011;3168;51.684;6.954;2024-03-08T11:39:39;16.50;;;11.17;;
6269;SDS011;3168;51.684;6.954;2024-03-08T11:42:04;22.27;;;13.37;;
6269;SDS011;3168;51.684;6.954;2024-03-08T11:44:30;20.20;;;11.50;;
6269;SDS011;3168;51.684;6.954;2024-03-08T11:46:56;22.20;;;12.40;;
6269;SDS011;3168;51.684;6.954;2024-03-08T11:49:22;15.37;;;12.03;;
6269;SDS011;3168;51.684;6.954;2024-03-08T11:51:52;16.37;;;11.83;;
6269;SDS011;3168;51.684;6.954;2024-03-08T11:54:17;16.87;;;11.30;;
6269;SDS011;3168;51.684;6.954;2024-03-08T11:56:44;11.40;;;10.17;;
6269;SDS011;3168;51.684;6.954;2024-03-08T11:59:11;11.13;;;10.00;;
6269;SDS011;3168;51.684;6.954;2024-03-08T12:01:36;15.53;;;12.13;;
6269;SDS011;3168;51.684;6.954;2024-03-08T12:04:02;17.00;;;10.40;;
6269;SDS011;3168;51.684;6.954;2024-03-08T12:06:36;16.30;;;11.60;;
6269;SDS011;3168;51.684;6.954;2024-03-08T12:08:54;13.90;;;11.40;;
6269;SDS011;3168;51.684;6.954;2024-03-08T12:11:20;17.33;;;9.60;;
6269;SDS011;3168;51.684;6.954;2024-03-08T12:13:46;16.90;;;11.00;;
6269;SDS011;3168;51.684;6.954;2024-03-08T12:16:12;15.60;;;11.90;;
6269;SDS011;3168;51.684;6.954;2024-03-08T12:18:38;15.70;;;11.10;;
6269;SDS011;3168;51.684;6.954;2024-03-08T12:21:08;14.93;;;8.23;;
6269;SDS011;3168;51.684;6.954;2024-03-08T12:23:34;18.93;;;10.37;;
6269;SDS011;3168;51.684;6.954;2024-03-08T12:28:34;15.33;;;10.53;;
6269;SDS011;3168;51.684;6.954;2024-03-08T12:31:00;16.20;;;11.60;;
6269;SDS011;3168;51.684;6.954;2024-03-08T12:33:26;12.53;;;9.73;;
6269;SDS011;3168;51.684;6.954;2024-03-08T12:35:53;13.17;;;11.30;;
6269;SDS011;3168;51.684;6.954;2024-03-08T12:38:20;15.70;;;10.10;;
6269;SDS011;3168;51.684;6.954;2024-03-08T12:40:45;14.80;;;10.67;;
6269;SDS011;3168;51.684;6.954;2024-03-08T12:43:11;15.63;;;11.50;;
6269;SDS011;3168;51.684;6.954;2024-03-08T12:45:37;12.93;;;10.70;;
6269;SDS011;3168;51.684;6.954;2024-03-08T12:48:03;15.23;;;10.10;;
6269;SDS011;3168;51.684;6.954;2024-03-08T12:50:30;12.27;;;8.67;;
6269;SDS011;3168;51.684;6.954;2024-03-08T12:52:56;20.57;;;11.27;;
6269;SDS011;3168;51.684;6.954;2024-03-08T12:55:22;15.03;;;10.10;;
6269;SDS011;3168;51.684;6.954;2024-03-08T12:57:48;15.53;;;9.70;;
6269;SDS011;3168;51.684;6.954;2024-03-08T13:00:14;18.77;;;12.00;;
6269;SDS011;3168;51.684;6.954;2024-03-08T13:02:40;15.90;;;11.30;;
6269;SDS011;3168;51.684;6.954;2024-03-08T13:05:06;12.43;;;9.97;;
6269;SDS011;3168;51.684;6.954;2024-03-08T13:07:33;12.73;;;10.13;;
6269;SDS011;3168;51.684;6.954;2024-03-08T13:09:59;14.20;;;11.07;;
6269;SDS011;3168;51.684;6.954;2024-03-08T13:12:25;16.57;;;11.73;;
6269;SDS011;3168;51.684;6.954;2024-03-08T13:14:51;10.33;;;9.33;;
6269;SDS011;3168;51.684;6.954;2024-03-08T13:17:17;18.80;;;10.80;;
6269;SDS011;3168;51.684;6.954;2024-03-08T13:19:44;14.13;;;9.50;;
6269;SDS011;3168;51.684;6.954;2024-03-08T13:22:09;13.00;;;10.13;;
6269;SDS011;3168;51.684;6.954;2024-03-08T13:24:38;12.33;;;9.57;;
6269;SDS011;3168;51.684;6.954;2024-03-08T13:27:05;9.83;;;8.80;;
6269;SDS011;3168;51.684;6.954;2024-03-08T13:29:31;11.27;;;8.60;;
6269;SDS011;3168;51.684;6.954;2024-03-08T13:31:57;11.17;;;9.43;;
6269;SDS011;3168;51.684;6.954;2024-03-08T13:34:23;11.00;;;8.20;;
6269;SDS011;3168;51.684;6.954;2024-03-08T13:36:49;12.93;;;9.10;;
6269;SDS011;3168;51.684;6.954;2024-03-08T13:39:15;11.83;;;9.20;;
6269;SDS011;3168;51.684;6.954;2024-03-08T13:41:41;14.20;;;8.63;;
6269;SDS011;3168;51.684;6.954;2024-03-08T13:44:07;14.35;;;7.85;;
6269;SDS011;3168;51.684;6.954;2024-03-08T13:46:33;9.50;;;8.60;;
6269;SDS011;3168;51.684;6.954;2024-03-08T13:49:03;22.20;;;10.50;;
6269;SDS011;3168;51.684;6.954;2024-03-08T13:51:26;10.70;;;8.27;;
6269;SDS011;3168;51.684;6.954;2024-03-08T13:53:52;21.50;;;11.40;;
6269;SDS011;3168;51.684;6.954;2024-03-08T13:56:18;12.00;;;9.20;;
6269;SDS011;3168;51.684;6.954;2024-03-08T13:58:44;12.37;;;8.60;;
6269;SDS011;3168;51.684;6.954;2024-03-08T14:06:36;13.00;;;10.50;;
6269;SDS011;3168;51.684;6.954;2024-03-08T14:09:03;17.17;;;10.27;;
6269;SDS011;3168;51.684;6.954;2024-03-08T14:11:29;8.83;;;7.90;;
6269;SDS011;3168;51.684;6.954;2024-03-08T14:13:54;13.20;;;8.87;;
6269;SDS011;3168;51.684;6.954;2024-03-08T14:16:20;12.97;;;9.67;;
6269;SDS011;3168;51.684;6.954;2024-03-08T14:18:46;13.43;;;8.13;;
6269;SDS011;3168;51.684;6.954;2024-03-08T14:21:12;15.53;;;9.73;;
6269;SDS011;3168;51.684;6.954;2024-03-08T14:23:37;13.90;;;9.70;;
6269;SDS011;3168;51.684;6.954;2024-03-08T14:26:03;10.80;;;9.70;;
6269;SDS011;3168;51.684;6.954;2024-03-08T14:28:29;18.70;;;11.13;;
6269;SDS011;3168;51.684;6.954;2024-03-08T14:30:55;14.60;;;9.17;;
6269;SDS011;3168;51.684;6.954;2024-03-08T14:33:20;16.27;;;11.03;;
6269;SDS011;3168;51.684;6.954;2024-03-08T14:35:46;12.47;;;10.13;;
6269;SDS011;3168;51.684;6.954;2024-03-08T14:38:12;11.67;;;9.90;;
6269;SDS011;3168;51.684;6.954;2024-03-08T14:40:38;14.50;;;9.43;;
6269;SDS011;3168;51.684;6.954;2024-03-08T14:43:04;14.77;;;9.57;;
6269;SDS011;3168;51.684;6.954;2024-03-08T14:45:30;13.53;;;10.07;;
6269;SDS011;3168;51.684;6.954;2024-03-08T14:47:56;14.10;;;9.73;;
6269;SDS011;3168;51.684;6.954;2024-03-08T14:50:22;18.67;;;9.97;;
6269;SDS011;3168;51.684;6.954;2024-03-08T14:52:48;14.30;;;9.50;;
6269;SDS011;3168;51.684;6.954;2024-03-08T14:55:15;14.60;;;10.17;;